Time;durP1;ratioP1;P1;durP2;ratioP2;P2;SDS_P1;SDS_P2;PMS_P1;PMS_P2;Temp;Humidity;BMP_temperature;BMP_pressure;BME280_temperature;BME280_humidity;BME280_pressure;Samples;Min_cycle;Max_cycle;Signal;HPM_P1;HPM_P2
2023/12/26 00:01:34;;;;;;;0.10;0.10;;;;;;;10.96;100.00;100667.88;5058194;27;101144;-28
2023/12/26 00:03:59;;;;;;;0.88;0.25;;;;;;;10.96;100.00;100689.56;5076845;27;96712;-27
2023/12/26 00:06:25;;;;;;;0.10;0.10;;;;;;;10.97;100.00;100692.19;5077332;27;96852;-28
2023/12/26 00:08:50;;;;;;;0.15;0.10;;;;;;;11.00;100.00;100693.81;5076521;27;99508;-28
2023/12/26 00:11:15;;;;;;;0.32;0.17;;;;;;;10.97;100.00;100688.59;5076704;27;97226;-28
2023/12/26 00:13:41;;;;;;;1.17;0.57;;;;;;;10.99;100.00;100689.38;5076348;27;96475;-28
2023/12/26 00:16:07;;;;;;;0.52;0.32;;;;;;;10.98;100.00;100690.31;5076723;27;96826;-28
2023/12/26 00:18:32;;;;;;;0.98;0.20;;;;;;;10.98;100.00;100684.91;5076207;27;99152;-27
2023/12/26 00:20:58;;;;;;;0.47;0.20;;;;;;;11.00;100.00;100688.41;5076395;27;97290;-28
2023/12/26 00:23:23;;;;;;;0.60;0.43;;;;;;;10.94;100.00;100676.13;5077055;27;96615;-28
2023/12/26 00:25:48;;;;;;;0.15;0.08;;;;;;;10.97;100.00;100691.31;5076534;27;96857;-28
2023/12/26 00:28:16;;;;;;;0.95;0.40;;;;;;;10.96;100.00;100687.72;5076660;27;97423;-28
2023/12/26 00:30:41;;;;;;;3.33;0.47;;;;;;;11.04;100.00;100698.94;5058035;27;101168;-29
2023/12/26 00:33:06;;;;;;;0.43;0.25;;;;;;;10.99;100.00;100690.25;5076696;27;96532;-28
2023/12/26 00:35:32;;;;;;;0.43;0.20;;;;;;;11.01;100.00;100691.00;5076450;27;96875;-28
2023/12/26 00:38:01;;;;;;;0.17;0.15;;;;;;;11.03;100.00;100682.75;5075462;27;99491;-28
2023/12/26 00:40:27;;;;;;;0.20;0.20;;;;;;;10.97;100.00;100683.19;5057073;27;101202;-28
2023/12/26 00:42:52;;;;;;;0.63;0.20;;;;;;;11.00;100.00;100681.13;5076266;27;96480;-28
2023/12/26 00:45:18;;;;;;;0.03;0.03;;;;;;;11.01;100.00;100684.69;5076490;27;96814;-28
2023/12/26 00:47:43;;;;;;;2.10;0.47;;;;;;;11.07;100.00;100694.28;5076062;27;97912;-28
2023/12/26 00:50:13;;;;;;;0.00;0.00;;;;;;;11.00;100.00;100674.84;5075780;27;99199;-28
2023/12/26 00:52:39;;;;;;;1.17;0.20;;;;;;;11.00;100.00;100680.25;5057615;27;97008;-27
2023/12/26 00:55:06;;;;;;;3.03;0.30;;;;;;;11.02;100.00;100684.59;5076348;27;96891;-27
2023/12/26 00:57:33;;;;;;;4.03;0.32;;;;;;;11.00;100.00;100691.09;5075320;27;97483;-28
2023/12/26 00:59:58;;;;;;;2.00;0.43;;;;;;;10.96;100.00;100685.00;5057398;27;100999;-28
2023/12/26 01:02:25;;;;;;;0.10;0.10;;;;;;;11.03;100.00;100689.03;5075686;27;96962;-27
2023/12/26 01:04:51;;;;;;;0.25;0.20;;;;;;;11.00;100.00;100696.53;5075872;27;96880;-27
2023/12/26 01:07:16;;;;;;;0.10;0.10;;;;;;;11.05;100.00;100700.66;5057261;27;100883;-29
2023/12/26 01:09:42;;;;;;;0.95;0.30;;;;;;;11.03;100.00;100693.59;5075677;27;97803;-28
2023/12/26 01:12:08;;;;;;;1.85;0.17;;;;;;;11.03;100.00;100701.72;5075886;27;96602;-27
2023/12/26 01:14:33;;;;;;;3.80;0.30;;;;;;;11.05;100.00;100705.22;5076117;27;96802;-28
2023/12/26 01:16:58;;;;;;;0.65;0.38;;;;;;;11.07;100.00;100705.13;5075819;27;97450;-28
2023/12/26 01:19:24;;;;;;;1.90;0.55;;;;;;;11.04;100.00;100708.91;5075885;27;97303;-29
2023/12/26 01:21:49;;;;;;;0.28;0.17;;;;;;;11.04;100.00;100708.91;5075713;27;96649;-28
2023/12/26 01:24:14;;;;;;;1.75;0.32;;;;;;;11.02;100.00;100703.59;5075823;27;96701;-28
2023/12/26 01:26:40;;;;;;;0.90;0.20;;;;;;;11.08;100.00;100725.81;5074647;27;98877;-28
2023/12/26 01:29:07;;;;;;;1.25;0.50;;;;;;;11.09;100.00;100724.88;5075564;27;97734;-28
2023/12/26 01:31:36;;;;;;;0.10;0.10;;;;;;;11.08;100.00;100721.28;5075558;27;96541;-28
2023/12/26 01:34:05;;;;;;;2.85;0.43;;;;;;;11.09;100.00;100733.00;5057137;27;96974;-28
2023/12/26 01:36:30;;;;;;;0.10;0.10;;;;;;;11.12;100.00;100725.53;5056405;27;100997;-27
2023/12/26 01:38:56;;;;;;;0.30;0.15;;;;;;;11.07;100.00;100722.25;5075036;27;99097;-29
2023/12/26 01:41:22;;;;;;;1.13;0.50;;;;;;;11.10;100.00;100742.88;5056831;27;96748;-28
2023/12/26 01:43:47;;;;;;;1.33;0.38;;;;;;;11.06;100.00;100744.91;5075607;27;96958;-27
2023/12/26 01:46:13;;;;;;;3.75;0.68;;;;;;;11.04;100.00;100736.88;5075424;27;97641;-28
2023/12/26 01:48:39;;;;;;;0.57;0.35;;;;;;;11.07;100.00;100746.66;5074845;27;99101;-28
2023/12/26 01:51:09;;;;;;;0.10;0.10;;;;;;;11.08;100.00;100736.66;5057290;27;96764;-28
2023/12/26 01:53:38;;;;;;;0.20;0.10;;;;;;;11.10;100.00;100753.72;5079053;27;96810;-28
2023/12/26 01:56:08;;;;;;;0.55;0.30;;;;;;;11.08;100.00;100742.97;5059505;27;100836;-28
2023/12/26 01:58:33;;;;;;;1.95;0.77;;;;;;;11.10;100.00;100761.84;5078595;27;99762;-28
2023/12/26 02:00:59;;;;;;;2.47;0.85;;;;;;;11.07;100.00;100753.91;5078879;27;96539;-28
2023/12/26 02:03:26;;;;;;;1.00;0.10;;;;;;;11.03;100.00;100753.22;5079109;27;96816;-28
2023/12/26 02:05:52;;;;;;;0.75;0.40;;;;;;;11.09;100.00;100776.38;5060046;27;100842;-29
2023/12/26 02:08:18;;;;;;;0.70;0.55;;;;;;;11.04;100.00;100763.97;5060187;27;99763;-27
2023/12/26 02:10:43;;;;;;;0.73;0.22;;;;;;;11.11;100.00;100771.69;5060185;27;96590;-28
2023/12/26 02:13:09;;;;;;;1.10;0.35;;;;;;;11.11;100.00;100782.53;5078604;27;96904;-27
2023/12/26 02:15:34;;;;;;;0.85;0.30;;;;;;;11.04;100.00;100776.69;5078014;27;98035;-27
2023/12/26 02:18:00;;;;;;;2.53;0.45;;;;;;;11.05;100.00;100781.97;5078337;27;97943;-28
2023/12/26 02:20:25;;;;;;;0.65;0.43;;;;;;;11.02;100.00;100776.75;5059905;27;96652;-28
2023/12/26 02:22:51;;;;;;;3.25;0.30;;;;;;;11.02;100.00;100782.19;5078731;27;96834;-28
2023/12/26 02:25:17;;;;;;;0.55;0.20;;;;;;;11.03;100.00;100774.91;5077977;27;99082;-28
2023/12/26 02:27:43;;;;;;;0.00;0.00;;;;;;;11.01;100.00;100795.81;5078214;27;97881;-28
2023/12/26 02:30:10;;;;;;;0.20;0.10;;;;;;;10.92;100.00;100783.75;5078458;27;96642;-28
2023/12/26 02:32:37;;;;;;;1.98;0.35;;;;;;;10.96;100.00;100808.81;5078628;27;96872;-28
2023/12/26 02:35:05;;;;;;;0.20;0.10;;;;;;;10.90;100.00;100793.81;5059615;27;101031;-28
2023/12/26 02:37:31;;;;;;;2.10;0.30;;;;;;;10.92;100.00;100799.16;5059176;27;100967;-28
2023/12/26 02:39:56;;;;;;;0.82;0.30;;;;;;;10.90;100.00;100815.50;5059433;27;96680;-29
2023/12/26 02:42:24;;;;;;;2.15;0.28;;;;;;;10.92;100.00;100818.13;5078417;27;96834;-27
2023/12/26 02:44:50;;;;;;;0.25;0.17;;;;;;;10.83;100.00;100816.84;5077753;27;99677;-28
2023/12/26 02:47:15;;;;;;;1.17;0.43;;;;;;;10.84;100.00;100799.63;5077974;27;97839;-29
2023/12/26 02:49:41;;;;;;;2.45;0.32;;;;;;;10.81;100.00;100814.22;5078350;27;96499;-28
2023/12/26 02:52:06;;;;;;;0.40;0.30;;;;;;;10.80;100.00;100827.91;5077574;27;96994;-28
2023/12/26 02:54:32;;;;;;;0.88;0.50;;;;;;;10.79;100.00;100818.88;5077961;27;97479;-28
2023/12/26 02:56:57;;;;;;;0.22;0.20;;;;;;;10.83;100.00;100819.56;5077751;27;97331;-28
2023/12/26 02:59:23;;;;;;;6.35;0.45;;;;;;;10.81;100.00;100833.19;5078051;27;96523;-28
2023/12/26 03:01:48;;;;;;;1.00;0.20;;;;;;;10.73;100.00;100826.53;5077898;27;96816;-28
2023/12/26 03:04:14;;;;;;;1.60;0.28;;;;;;;10.75;100.00;100839.03;5058550;27;100933;-28
2023/12/26 03:06:40;;;;;;;5.72;0.40;;;;;;;10.74;100.00;100845.38;5058637;27;100799;-28
2023/12/26 03:09:06;;;;;;;1.65;0.45;;;;;;;10.74;100.00;100844.53;5078081;27;96588;-28
2023/12/26 03:11:31;;;;;;;1.38;0.20;;;;;;;10.73;100.00;100865.34;5077833;27;96853;-28
2023/12/26 03:13:58;;;;;;;0.22;0.17;;;;;;;10.68;100.00;100866.56;5077475;27;97990;-28
2023/12/26 03:16:23;;;;;;;2.67;0.38;;;;;;;10.65;100.00;100855.91;5077609;27;97420;-27
2023/12/26 03:18:49;;;;;;;0.57;0.10;;;;;;;10.65;100.00;100840.53;5077765;27;96978;-28
2023/12/26 03:21:14;;;;;;;3.70;0.32;;;;;;;10.66;100.00;100858.56;5077847;27;96912;-29
2023/12/26 03:23:40;;;;;;;0.08;0.05;;;;;;;10.62;100.00;100867.81;5077128;27;98354;-28
2023/12/26 03:26:07;;;;;;;0.55;0.10;;;;;;;10.64;100.00;100874.03;5077253;27;97293;-28
2023/12/26 03:28:33;;;;;;;1.60;0.25;;;;;;;10.54;100.00;100862.88;5058464;27;96532;-28
2023/12/26 03:31:02;;;;;;;1.33;0.25;;;;;;;10.61;100.00;100875.09;5077315;27;96960;-28
2023/12/26 03:33:27;;;;;;;1.17;0.28;;;;;;;10.68;100.00;100880.09;5058650;27;101102;-28
2023/12/26 03:35:53;;;;;;;0.20;0.15;;;;;;;10.65;100.00;100872.19;5076584;27;99417;-27
2023/12/26 03:38:18;;;;;;;3.13;0.60;;;;;;;10.66;100.00;100873.94;5077357;27;96701;-28
2023/12/26 03:40:44;;;;;;;0.52;0.35;;;;;;;10.66;100.00;100874.81;5077160;27;96867;-28
2023/12/26 03:43:09;;;;;;;3.67;0.57;;;;;;;10.70;100.00;100891.72;5076850;27;99317;-28
2023/12/26 03:45:34;;;;;;;0.43;0.22;;;;;;;10.64;100.00;100879.44;5077507;27;97908;-28
2023/12/26 03:48:00;;;;;;;0.10;0.10;;;;;;;10.61;100.00;100895.88;5077171;27;96529;-28
2023/12/26 03:50:25;;;;;;;0.00;0.00;;;;;;;10.60;100.00;100891.41;5076897;27;96808;-28
2023/12/26 03:52:51;;;;;;;2.40;0.10;;;;;;;10.49;100.00;100889.38;5076265;27;98020;-28
2023/12/26 03:55:16;;;;;;;0.22;0.20;;;;;;;10.35;100.00;100892.06;5076608;27;98688;-28
2023/12/26 03:57:42;;;;;;;1.40;0.17;;;;;;;10.27;100.00;100907.81;5076645;27;96444;-28
2023/12/26 04:00:09;;;;;;;1.50;0.30;;;;;;;10.23;100.00;100901.75;5077260;27;96800;-28
2023/12/26 04:02:34;;;;;;;0.47;0.20;;;;;;;10.24;100.00;100905.31;5076501;27;98110;-28
2023/12/26 04:05:01;;;;;;;1.02;0.38;;;;;;;10.19;100.00;100902.88;5057888;27;100618;-28
2023/12/26 04:07:27;;;;;;;1.27;0.35;;;;;;;10.16;100.00;100906.63;5058434;27;96623;-28
2023/12/26 04:09:52;;;;;;;0.00;0.00;;;;;;;10.11;100.00;100913.28;5077200;27;96689;-28
2023/12/26 04:12:17;;;;;;;0.30;0.08;;;;;;;10.08;100.00;100919.75;5076604;27;97413;-28
2023/12/26 04:14:43;;;;;;;3.10;0.40;;;;;;;9.97;100.00;100920.38;5075837;27;97987;-28
2023/12/26 04:17:08;;;;;;;2.53;0.38;;;;;;;9.92;100.00;100940.56;5076130;27;96531;-28
2023/12/26 04:19:34;;;;;;;0.30;0.30;;;;;;;9.90;100.00;100947.88;5076821;27;96944;-28
2023/12/26 04:21:59;;;;;;;2.17;0.20;;;;;;;9.89;100.00;100951.53;5076312;27;97350;-28
2023/12/26 04:24:24;;;;;;;0.00;0.00;;;;;;;9.86;100.00;100951.72;5076221;27;99172;-28
2023/12/26 04:26:50;;;;;;;3.00;0.55;;;;;;;9.79;100.00;100945.78;5076679;27;96589;-28
2023/12/26 04:29:15;;;;;;;0.00;0.00;;;;;;;9.76;100.00;100945.94;5076647;27;96765;-28
2023/12/26 04:31:40;;;;;;;0.70;0.22;;;;;;;9.81;100.00;100949.25;5076296;27;97319;-28
2023/12/26 04:34:06;;;;;;;0.35;0.10;;;;;;;9.74;100.00;100959.56;5076540;27;97256;-29
2023/12/26 04:36:35;;;;;;;1.80;0.40;;;;;;;9.74;100.00;100970.38;5076079;27;96629;-28
2023/12/26 04:39:01;;;;;;;0.10;0.10;;;;;;;9.74;100.00;100985.72;5057815;27;96831;-29
2023/12/26 04:41:26;;;;;;;2.58;0.47;;;;;;;9.66;100.00;100969.06;5057068;27;101225;-28
2023/12/26 04:43:51;;;;;;;4.35;0.50;;;;;;;9.67;100.00;100990.59;5075986;27;97367;-28
2023/12/26 04:46:19;;;;;;;0.35;0.22;;;;;;;9.62;100.00;100984.59;5076366;27;96653;-29
2023/12/26 04:48:45;;;;;;;0.30;0.30;;;;;;;9.62;100.00;100990.00;5057752;27;96951;-28
2023/12/26 04:51:20;;;;;;;0.52;0.22;;;;;;;9.64;100.00;100979.97;5075491;27;99401;-28
2023/12/26 04:53:46;;;;;;;0.20;0.13;;;;;;;9.63;100.00;100982.75;5057338;27;101258;-28
2023/12/26 04:56:19;;;;;;;0.00;0.00;;;;;;;9.55;100.00;100981.34;5053526;27;96752;-28
2023/12/26 04:58:49;;;;;;;1.45;0.35;;;;;;;9.59;100.00;100992.88;5054545;27;96922;-27
2023/12/26 05:01:16;;;;;;;0.00;0.00;;;;;;;9.53;100.00;100994.09;5053607;27;100985;-28
2023/12/26 05:03:42;;;;;;;0.73;0.32;;;;;;;9.46;100.00;100989.09;5037017;27;101213;-28
2023/12/26 05:06:08;;;;;;;0.82;0.50;;;;;;;9.45;100.00;100995.47;5055197;27;96589;-29
2023/12/26 05:08:36;;;;;;;1.95;0.30;;;;;;;9.38;100.00;100992.22;5054010;27;96881;-28
2023/12/26 05:11:01;;;;;;;0.10;0.08;;;;;;;9.36;100.00;100997.69;5053726;27;101344;-28
2023/12/26 05:13:26;;;;;;;0.68;0.20;;;;;;;9.40;100.00;101009.22;5055369;27;97793;-28
2023/12/26 05:15:52;;;;;;;0.80;0.35;;;;;;;9.35;100.00;101017.59;5055623;27;96516;-29
2023/12/26 05:18:17;;;;;;;1.33;0.22;;;;;;;9.29;98.22;101017.91;5055312;27;96809;-28
2023/12/26 05:20:43;;;;;;;0.65;0.40;;;;;;;9.32;99.08;101028.56;5054774;27;99168;-28
2023/12/26 05:23:08;;;;;;;0.47;0.05;;;;;;;9.27;96.84;101027.94;5055447;27;97352;-28
2023/12/26 05:25:33;;;;;;;0.22;0.03;;;;;;;9.25;98.21;101021.75;5054611;27;96483;-28
2023/12/26 05:27:59;;;;;;;0.47;0.22;;;;;;;9.28;97.57;101043.19;5055476;27;96734;-30
2023/12/26 05:30:24;;;;;;;0.43;0.28;;;;;;;9.26;98.98;101047.81;5054221;27;97856;-27
2023/12/26 05:32:50;;;;;;;0.00;0.00;;;;;;;9.28;97.83;101058.56;5054959;27;97849;-29
2023/12/26 05:35:15;;;;;;;0.50;0.10;;;;;;;9.22;98.47;101042.66;5055355;27;96516;-28
2023/12/26 05:37:41;;;;;;;0.25;0.10;;;;;;;9.23;97.86;101066.91;5055105;27;96781;-28
2023/12/26 05:40:07;;;;;;;0.75;0.30;;;;;;;9.20;98.03;101066.16;5054586;27;99674;-28
2023/12/26 05:42:32;;;;;;;0.10;0.10;;;;;;;9.18;98.56;101076.22;5053284;27;99005;-27
2023/12/26 05:44:58;;;;;;;0.10;0.03;;;;;;;9.10;97.82;101071.19;5054900;27;96467;-28
2023/12/26 05:47:23;;;;;;;0.30;0.10;;;;;;;9.07;97.89;101076.75;5055199;27;96795;-28
2023/12/26 05:49:49;;;;;;;1.70;0.15;;;;;;;9.05;97.18;101075.97;5054901;27;97860;-28
2023/12/26 05:52:15;;;;;;;0.82;0.20;;;;;;;9.08;98.49;101086.59;5054325;27;99109;-28
2023/12/26 05:54:40;;;;;;;0.20;0.13;;;;;;;9.14;98.22;101094.41;5053054;27;96724;-28
2023/12/26 05:57:05;;;;;;;2.95;0.38;;;;;;;9.03;98.09;101097.63;5066815;27;96716;-29
2023/12/26 05:59:31;;;;;;;0.10;0.05;;;;;;;9.08;97.40;101105.50;5075117;27;97414;-29
2023/12/26 06:01:56;;;;;;;0.00;0.00;;;;;;;9.02;98.24;101106.72;5074835;27;97821;-29
2023/12/26 06:04:22;;;;;;;6.53;0.63;;;;;;;9.04;98.44;101110.22;5075405;27;96470;-28
2023/12/26 06:06:47;;;;;;;0.00;0.00;;;;;;;9.06;97.91;101126.38;5056616;27;96765;-29
2023/12/26 06:09:13;;;;;;;5.25;0.85;;;;;;;9.03;98.41;101124.66;5075111;27;97923;-28
2023/12/26 06:11:38;;;;;;;2.25;0.65;;;;;;;9.00;97.99;101130.22;5074938;27;99611;-30
2023/12/26 06:14:05;;;;;;;5.30;0.55;;;;;;;9.06;98.46;101145.28;5075267;27;96590;-28
2023/12/26 06:16:31;;;;;;;1.90;0.45;;;;;;;9.06;97.14;101150.69;5056488;27;96796;-28
2023/12/26 06:18:56;;;;;;;3.83;0.30;;;;;;;9.00;96.90;101146.44;5074268;27;97897;-28
2023/12/26 06:21:22;;;;;;;0.08;0.03;;;;;;;9.06;97.45;101158.78;5074599;27;98879;-28
2023/12/26 06:23:48;;;;;;;0.45;0.15;;;;;;;9.04;97.49;101148.03;5075072;27;96585;-28
2023/12/26 06:26:13;;;;;;;2.00;0.47;;;;;;;9.07;98.25;101160.53;5074919;27;96782;-28
2023/12/26 06:28:39;;;;;;;2.47;0.70;;;;;;;9.02;98.39;101157.19;5074508;27;99438;-29
2023/12/26 06:31:04;;;;;;;0.55;0.20;;;;;;;9.03;97.76;101156.22;5074299;27;99383;-27
2023/12/26 06:33:30;;;;;;;0.00;0.00;;;;;;;9.06;97.29;101173.16;5075112;27;96692;-28
2023/12/26 06:35:55;;;;;;;1.10;0.57;;;;;;;8.94;96.81;101152.16;5075046;27;96738;-29
2023/12/26 06:38:20;;;;;;;0.10;0.10;;;;;;;8.95;97.11;101180.94;5077646;27;97331;-28
2023/12/26 06:40:46;;;;;;;1.27;0.30;;;;;;;8.97;96.68;101179.03;5078096;27;97796;-28
2023/12/26 06:43:11;;;;;;;0.80;0.20;;;;;;;8.99;96.02;101184.38;5078057;27;96436;-28
2023/12/26 06:45:37;;;;;;;0.10;0.10;;;;;;;9.00;97.83;101186.09;5078066;27;96812;-28
2023/12/26 06:48:03;;;;;;;1.90;0.32;;;;;;;8.96;97.04;101181.78;5078058;27;97967;-27
2023/12/26 06:50:28;;;;;;;0.00;0.00;;;;;;;8.94;98.24;101195.41;5077367;27;99255;-27
2023/12/26 06:52:53;;;;;;;4.80;0.40;;;;;;;8.86;96.86;101192.19;5078344;27;96615;-29
2023/12/26 06:55:19;;;;;;;7.18;0.55;;;;;;;8.89;97.48;101206.44;5078304;27;96729;-27
2023/12/26 06:57:44;;;;;;;0.65;0.13;;;;;;;8.87;96.97;101186.72;5077597;27;98106;-27
2023/12/26 07:00:10;;;;;;;0.30;0.17;;;;;;;8.88;96.54;101188.44;5077905;27;97296;-28
2023/12/26 07:02:35;;;;;;;0.17;0.08;;;;;;;8.92;96.87;101195.47;5059305;27;96656;-28
2023/12/26 07:05:01;;;;;;;2.63;0.40;;;;;;;8.97;98.39;101205.19;5077907;27;96807;-28
2023/12/26 07:07:26;;;;;;;0.00;0.00;;;;;;;9.00;96.52;101205.00;5077096;27;99283;-28
2023/12/26 07:09:51;;;;;;;0.20;0.10;;;;;;;9.02;97.46;101203.13;5077635;27;97270;-28
2023/12/26 07:12:17;;;;;;;0.03;0.03;;;;;;;9.01;95.99;101202.25;5077986;27;96789;-27
2023/12/26 07:14:42;;;;;;;0.30;0.10;;;;;;;9.08;96.90;101208.19;5077320;27;96824;-28
2023/12/26 07:17:08;;;;;;;1.35;0.15;;;;;;;9.06;98.07;101211.00;5077474;27;97347;-28
2023/12/26 07:19:33;;;;;;;2.45;0.32;;;;;;;9.13;98.19;101238.59;5077382;27;98301;-28
2023/12/26 07:21:58;;;;;;;6.43;0.63;;;;;;;9.15;98.24;101236.66;5077293;27;96528;-27
2023/12/26 07:24:24;;;;;;;1.75;0.22;;;;;;;9.08;98.12;101229.81;5078389;27;96855;-28
2023/12/26 07:26:49;;;;;;;3.35;0.35;;;;;;;9.14;98.12;101243.03;5077328;27;97650;-28
2023/12/26 07:29:15;;;;;;;0.10;0.10;;;;;;;9.14;98.49;101240.34;5077096;27;97806;-29
2023/12/26 07:31:40;;;;;;;0.20;0.15;;;;;;;9.16;98.54;101241.16;5076889;27;96741;-28
2023/12/26 07:34:08;;;;;;;2.65;0.45;;;;;;;9.14;99.17;101234.94;5077245;27;96811;-28
2023/12/26 07:36:34;;;;;;;2.63;0.60;;;;;;;9.07;97.69;101233.47;5058396;27;101282;-28
2023/12/26 07:39:00;;;;;;;1.40;0.35;;;;;;;9.10;97.38;101246.84;5058578;27;101228;-28
2023/12/26 07:41:25;;;;;;;0.80;0.47;;;;;;;9.04;97.55;101244.44;5077746;27;96884;-28
2023/12/26 07:43:52;;;;;;;4.75;0.50;;;;;;;9.06;97.71;101247.97;5077286;27;96842;-28
2023/12/26 07:46:18;;;;;;;2.22;0.30;;;;;;;9.04;98.21;101253.44;5076855;27;99411;-29
2023/12/26 07:48:43;;;;;;;0.17;0.17;;;;;;;9.02;97.75;101267.97;5076134;27;98740;-28
2023/12/26 07:51:10;;;;;;;4.30;0.32;;;;;;;9.01;97.13;101277.91;5077142;27;96639;-28
2023/12/26 07:53:35;;;;;;;0.68;0.25;;;;;;;9.01;97.01;101294.13;5058847;27;96551;-27
2023/12/26 07:56:01;;;;;;;2.90;0.77;;;;;;;8.97;98.24;101272.72;5075620;27;99753;-28
2023/12/26 07:58:26;;;;;;;0.85;0.20;;;;;;;8.96;97.08;101279.91;5076874;27;97804;-28
2023/12/26 08:00:51;;;;;;;0.57;0.20;;;;;;;8.98;97.15;101283.44;5077159;27;96608;-28
2023/12/26 08:03:17;;;;;;;0.00;0.00;;;;;;;9.02;96.96;101289.59;5077206;27;96814;-28
2023/12/26 08:05:42;;;;;;;3.45;0.43;;;;;;;8.96;97.48;101295.25;5076834;27;97780;-28
2023/12/26 08:08:10;;;;;;;1.05;0.28;;;;;;;9.00;97.08;101315.78;5076438;27;99324;-28
2023/12/26 08:10:35;;;;;;;0.73;0.30;;;;;;;8.98;97.07;101307.75;5058372;27;96613;-27
2023/12/26 08:13:00;;;;;;;0.43;0.15;;;;;;;8.92;96.99;101317.03;5077320;27;96693;-28
2023/12/26 08:15:26;;;;;;;0.22;0.15;;;;;;;8.95;97.15;101326.81;5076522;27;97870;-28
2023/12/26 08:17:51;;;;;;;1.75;0.10;;;;;;;8.92;97.01;101322.44;5076267;27;99581;-28
2023/12/26 08:20:17;;;;;;;0.38;0.25;;;;;;;8.96;96.56;101338.50;5076217;27;96481;-28
2023/12/26 08:22:42;;;;;;;0.85;0.60;;;;;;;8.96;96.83;101338.50;5076909;27;96717;-27
2023/12/26 08:25:09;;;;;;;0.25;0.13;;;;;;;8.93;96.92;101337.69;5076424;27;97374;-28
2023/12/26 08:27:34;;;;;;;4.15;0.68;;;;;;;8.88;95.94;101342.44;5057603;27;100811;-28
2023/12/26 08:30:00;;;;;;;0.75;0.30;;;;;;;8.93;96.82;101356.59;5076858;27;96461;-27
2023/12/26 08:32:25;;;;;;;2.47;0.82;;;;;;;8.95;96.78;101353.84;5076737;27;97005;-29
2023/12/26 08:34:51;;;;;;;5.82;0.57;;;;;;;8.93;96.93;101359.28;5076326;27;97312;-28
2023/12/26 08:37:16;;;;;;;0.85;0.40;;;;;;;8.89;96.54;101365.81;5076254;27;99674;-28
2023/12/26 08:39:41;;;;;;;1.75;0.38;;;;;;;8.93;96.11;101372.81;5076554;27;96523;-28
2023/12/26 08:42:07;;;;;;;0.10;0.10;;;;;;;8.89;96.40;101375.72;5076422;27;96716;-27
2023/12/26 08:44:33;;;;;;;1.52;0.30;;;;;;;8.92;95.30;101379.16;5075499;27;99261;-27
2023/12/26 08:47:05;;;;;;;0.73;0.35;;;;;;;8.95;95.94;101386.25;5076231;27;97309;-28
2023/12/26 08:49:31;;;;;;;1.98;0.55;;;;;;;8.91;94.92;101388.25;5076085;27;97614;-28
2023/12/26 08:51:56;;;;;;;1.13;0.93;;;;;;;8.97;95.70;101383.50;5076226;27;96843;-27
2023/12/26 08:54:22;;;;;;;5.45;0.43;;;;;;;8.96;94.68;101392.53;5075876;27;99292;-28
2023/12/26 08:56:48;;;;;;;1.23;0.60;;;;;;;8.92;94.79;101389.09;5074913;27;99524;-28
2023/12/26 08:59:13;;;;;;;0.10;0.03;;;;;;;8.92;95.19;101391.81;5075701;27;96646;-28
2023/12/26 09:01:39;;;;;;;0.10;0.10;;;;;;;8.90;94.44;101397.28;5076617;27;96762;-28
2023/12/26 09:04:04;;;;;;;0.65;0.30;;;;;;;8.97;96.20;101419.50;5075607;27;99461;-28
2023/12/26 09:06:30;;;;;;;3.70;0.55;;;;;;;8.85;94.83;101414.66;5075893;27;97848;-27
2023/12/26 09:08:55;;;;;;;7.07;0.93;;;;;;;8.90;95.43;101431.53;5075409;27;96485;-28
2023/12/26 09:11:20;;;;;;;4.53;0.68;;;;;;;8.86;96.00;101436.16;5075987;27;96725;-28
2023/12/26 09:13:46;;;;;;;0.10;0.10;;;;;;;8.84;95.05;101419.19;5075399;27;99537;-28
2023/12/26 09:16:12;;;;;;;1.27;0.38;;;;;;;8.90;95.34;101424.28;5075304;27;99221;-28
2023/12/26 09:18:39;;;;;;;0.35;0.25;;;;;;;8.98;96.00;101434.75;5075561;27;96523;-28
2023/12/26 09:21:04;;;;;;;0.20;0.13;;;;;;;8.92;95.76;101432.34;5075649;27;97045;-28
2023/12/26 09:23:30;;;;;;;0.73;0.35;;;;;;;9.01;95.45;101463.44;5075617;27;97611;-28
2023/12/26 09:25:55;;;;;;;0.85;0.25;;;;;;;9.07;94.38;101455.94;5075694;27;97117;-28
2023/12/26 09:28:22;;;;;;;0.10;0.10;;;;;;;9.07;95.49;101441.56;5075905;27;96456;-29
2023/12/26 09:30:47;;;;;;;0.90;0.20;;;;;;;9.10;95.04;101458.50;5040378;27;96905;-27
2023/12/26 09:33:12;;;;;;;4.90;0.32;;;;;;;9.12;94.26;101462.00;5075032;27;98006;-28
2023/12/26 09:35:38;;;;;;;1.30;0.25;;;;;;;9.22;93.82;101469.69;5075544;27;97781;-28
2023/12/26 09:38:03;;;;;;;0.55;0.25;;;;;;;9.18;94.30;101463.56;5075179;27;97762;-28
2023/12/26 09:40:29;;;;;;;0.70;0.32;;;;;;;9.27;94.11;101468.56;5075447;27;96743;-28
2023/12/26 09:42:59;;;;;;;0.65;0.15;;;;;;;9.35;93.54;101485.28;5075031;27;98911;-28
2023/12/26 09:45:26;;;;;;;0.03;0.03;;;;;;;9.34;93.38;101478.16;5056823;27;100928;-29
2023/12/26 09:47:52;;;;;;;1.10;0.10;;;;;;;9.37;93.33;101471.72;5075453;27;96784;-27
2023/12/26 09:50:17;;;;;;;3.00;0.50;;;;;;;9.46;93.82;101503.75;5075780;27;96750;-29
2023/12/26 09:52:50;;;;;;;7.53;0.38;;;;;;;9.46;92.65;101489.31;5075111;27;97568;-29
2023/12/26 09:55:16;;;;;;;7.95;0.50;;;;;;;9.47;91.97;101491.09;5056375;27;101431;-28
2023/12/26 09:57:43;;;;;;;1.90;0.35;;;;;;;9.55;92.60;101507.81;5055965;27;96740;-28
2023/12/26 10:00:09;;;;;;;1.58;0.60;;;;;;;9.59;92.35;101517.56;5056899;27;96775;-28
2023/12/26 10:02:34;;;;;;;2.40;0.82;;;;;;;9.57;91.88;101524.84;5056427;27;100637;-28
2023/12/26 10:05:00;;;;;;;2.75;0.52;;;;;;;9.60;91.72;101523.84;5075160;27;97817;-28
2023/12/26 10:07:27;;;;;;;1.83;0.30;;;;;;;9.75;91.34;101540.25;5075392;27;96432;-28
2023/12/26 10:09:53;;;;;;;2.53;0.45;;;;;;;9.71;90.97;101535.03;5056554;27;96894;-28
2023/12/26 10:12:19;;;;;;;5.72;0.40;;;;;;;9.67;91.89;101534.28;5057880;27;100750;-28
2023/12/26 10:14:44;;;;;;;1.55;0.30;;;;;;;9.69;90.60;101534.22;5060420;27;100830;-27
2023/12/26 10:17:12;;;;;;;4.78;0.55;;;;;;;9.68;91.37;101530.66;5078899;27;96597;-28
2023/12/26 10:19:38;;;;;;;0.60;0.20;;;;;;;9.72;90.92;101544.91;5060210;27;96908;-29
2023/12/26 10:22:03;;;;;;;0.77;0.47;;;;;;;9.69;90.20;101553.16;5059066;27;100791;-27
2023/12/26 10:24:29;;;;;;;3.83;0.38;;;;;;;9.74;90.35;101546.56;5078348;27;97410;-27
2023/12/26 10:26:55;;;;;;;0.98;0.32;;;;;;;9.70;90.69;101549.50;5060199;27;96538;-28
2023/12/26 10:29:21;;;;;;;0.43;0.10;;;;;;;9.72;89.47;101556.59;5060035;27;96901;-28
2023/12/26 10:31:46;;;;;;;2.55;0.38;;;;;;;9.74;89.86;101554.69;5078008;27;99016;-28
2023/12/26 10:34:14;;;;;;;5.38;0.40;;;;;;;9.77;89.19;101565.41;5078307;27;97868;-29
2023/12/26 10:36:44;;;;;;;1.83;0.32;;;;;;;9.98;89.88;101559.91;5059623;27;96578;-28
2023/12/26 10:39:11;;;;;;;1.27;0.38;;;;;;;10.07;87.77;101551.34;5060178;27;96800;-28
2023/12/26 10:41:40;;;;;;;0.20;0.10;;;;;;;10.34;87.49;101567.22;5059653;27;100969;-28
2023/12/26 10:44:06;;;;;;;1.27;0.25;;;;;;;10.40;87.44;101562.41;5059403;27;101270;-28
2023/12/26 10:46:32;;;;;;;2.88;0.40;;;;;;;10.37;87.13;101561.69;5059300;27;96514;-29
2023/12/26 10:49:04;;;;;;;1.65;0.40;;;;;;;10.25;85.49;101567.63;5078334;27;96759;-28
2023/12/26 10:51:30;;;;;;;0.40;0.25;;;;;;;10.15;86.46;101570.81;5058948;27;101341;-28
2023/12/26 10:54:20;;;;;;;5.78;0.25;;;;;;;10.15;86.65;101576.22;5078031;27;97358;-28
2023/12/26 10:56:48;;;;;;;3.10;0.63;;;;;;;10.08;87.92;101582.91;5051143;27;96608;-29
2023/12/26 13:54:03;;;;;;;1.13;0.15;;;;;;;9.22;84.24;101786.84;5078737;27;96458;-27
2023/12/26 13:56:28;;;;;;;0.22;0.15;;;;;;;9.22;85.87;101797.66;5059681;27;99153;-28
2023/12/26 13:58:54;;;;;;;2.47;0.20;;;;;;;9.20;85.20;101794.16;5078481;27;99338;-28
2023/12/26 14:01:20;;;;;;;2.22;0.20;;;;;;;9.24;85.03;101816.53;5078600;27;96643;-28
2023/12/26 14:03:50;;;;;;;0.10;0.10;;;;;;;9.22;85.45;101819.28;5078724;27;96841;-28
2023/12/26 14:06:19;;;;;;;1.15;0.52;;;;;;;9.24;84.96;101819.22;5059969;27;101120;-27
2023/12/26 14:08:49;;;;;;;4.93;0.43;;;;;;;9.20;85.84;101814.88;5060026;27;100943;-29
2023/12/26 14:11:15;;;;;;;0.40;0.25;;;;;;;9.23;85.78;101828.31;5060405;27;97374;-29
2023/12/26 14:13:41;;;;;;;1.42;0.20;;;;;;;9.19;85.24;101821.25;5060339;27;96858;-28